Time;durP1;ratioP1;P1;durP2;ratioP2;P2;SDS_P1;SDS_P2;PMS_P1;PMS_P2;Temp;Humidity;BMP_temperature;BMP_pressure;BME280_temperature;BME280_humidity;BME280_pressure;Samples;Min_cycle;Max_cycle;Signal;HPM_P1;HPM_P2
2021/09/18 07:52:30;;;;;;;8.50;6.38;;;18.60;99.90;;;;;;12058055;27;20554;-67
2021/09/18 07:58:18;;;;;;;12.88;6.20;;;19.20;99.90;;;;;;12056019;28;20055;-69
2021/09/18 08:04:05;;;;;;;8.82;5.70;;;20.00;99.90;;;;;;12018264;28;20049;-68
2021/09/18 08:09:55;;;;;;;12.88;6.05;;;20.40;99.90;;;;;;12024863;28;20082;-69
2021/09/18 08:15:42;;;;;;;7.68;5.88;;;20.70;99.90;;;;;;12038922;28;20113;-69
2021/09/18 08:49:02;;;;;;;11.38;5.38;;;19.40;99.90;;;;;;11595469;28;15054410;-66
2021/09/18 10:13:58;;;;;;;8.50;3.90;;;20.80;99.90;;;;;;12082803;28;20040;-65
2021/09/18 10:25:58;;;;;;;6.72;3.50;;;21.40;99.90;;;;;;12038371;28;20062;-66
2021/09/18 10:38:21;;;;;;;3.72;3.33;;;21.90;99.90;;;;;;12091782;28;20040;-66
2021/09/18 10:44:19;;;;;;;8.02;3.97;;;22.20;99.90;;;;;;11950354;28;21127;-66
2021/09/18 10:50:30;;;;;;;7.60;3.55;;;22.40;99.90;;;;;;12048070;28;20056;-68
2021/09/18 10:56:59;;;;;;;4.32;3.92;;;22.50;99.90;;;;;;12050015;28;20462;-68
2021/09/18 11:02:49;;;;;;;5.60;3.92;;;22.40;99.90;;;;;;12016299;28;20095;-67
2021/09/18 11:08:58;;;;;;;6.72;4.28;;;22.40;99.90;;;;;;12037379;28;20055;-66
2021/09/18 11:21:18;;;;;;;6.47;4.18;;;22.70;99.90;;;;;;11956706;28;20045;-70
2021/09/18 11:27:08;;;;;;;5.10;3.72;;;22.90;99.90;;;;;;11998679;28;20040;-67
2021/09/18 11:33:12;;;;;;;6.40;4.15;;;23.00;99.90;;;;;;11919084;28;20641;-67
2021/09/18 11:38:59;;;;;;;3.78;3.33;;;23.00;99.90;;;;;;12020709;28;20136;-68
2021/09/18 11:44:48;;;;;;;3.88;2.83;;;23.00;99.90;;;;;;11962643;28;20049;-69
2021/09/18 11:51:00;;;;;;;4.40;3.25;;;23.10;99.90;;;;;;12031341;28;20485;-67
2021/09/18 11:56:51;;;;;;;3.45;2.90;;;23.40;99.90;;;;;;11968462;28;20195;-67
2021/09/18 12:02:43;;;;;;;4.03;2.90;;;23.60;99.90;;;;;;12032582;28;20049;-67
2021/09/18 12:08:49;;;;;;;5.07;2.83;;;23.70;99.90;;;;;;12034751;28;20078;-67
2021/09/18 12:14:40;;;;;;;5.85;3.08;;;23.50;99.90;;;;;;11975215;28;20054;-67
2021/09/18 12:20:28;;;;;;;4.88;3.13;;;23.70;99.90;;;;;;12064964;28;20052;-67
2021/09/18 12:32:23;;;;;;;3.17;2.60;;;24.60;98.90;;;;;;12007220;28;20048;-67
2021/09/18 12:38:13;;;;;;;3.65;3.15;;;25.00;97.10;;;;;;12038860;28;20051;-67
2021/09/18 12:44:04;;;;;;;2.65;2.45;;;25.20;95.20;;;;;;11957551;28;20551;-67
2021/09/18 12:49:52;;;;;;;5.07;2.55;;;25.00;94.50;;;;;;11991653;28;20094;-67
2021/09/18 12:56:25;;;;;;;7.38;3.13;;;25.10;94.10;;;;;;11916080;28;20086;-67
2021/09/18 13:02:28;;;;;;;3.00;2.50;;;25.20;92.80;;;;;;11985945;28;20064;-67
2021/09/18 13:08:16;;;;;;;2.90;2.70;;;25.10;92.80;;;;;;11973459;28;20049;-67
2021/09/18 13:14:13;;;;;;;2.90;2.70;;;25.50;93.50;;;;;;11978279;28;20431;-67
2021/09/18 13:20:30;;;;;;;5.53;2.78;;;25.80;92.80;;;;;;11967456;28;20441;-67
2021/09/18 13:26:17;;;;;;;2.78;2.30;;;25.70;92.90;;;;;;11979608;28;20045;-67
2021/09/18 13:32:07;;;;;;;3.67;2.50;;;25.80;92.20;;;;;;11964513;28;20045;-67
2021/09/18 13:38:10;;;;;;;2.90;2.13;;;26.30;90.90;;;;;;11960335;28;20739;-67
2021/09/18 13:44:01;;;;;;;7.97;2.67;;;26.40;90.00;;;;;;11924001;28;20052;-67
2021/09/18 13:49:51;;;;;;;6.47;2.45;;;26.50;90.10;;;;;;11994195;28;20044;-67
2021/09/18 13:55:43;;;;;;;3.50;2.67;;;26.80;89.30;;;;;;11949427;28;20576;-67
2021/09/18 14:01:32;;;;;;;4.35;2.30;;;26.90;87.50;;;;;;12020049;28;20048;-67
2021/09/18 14:07:20;;;;;;;3.88;2.10;;;27.10;85.70;;;;;;11976138;28;20055;-67
2021/09/18 14:13:31;;;;;;;4.20;2.40;;;27.20;84.30;;;;;;11996970;28;20048;-67
2021/09/18 14:19:21;;;;;;;3.13;2.47;;;27.10;84.90;;;;;;12040903;28;20075;-67
2021/09/18 14:25:29;;;;;;;3.13;2.58;;;26.60;86.10;;;;;;11944546;28;20105;-67
2021/09/18 14:31:35;;;;;;;11.93;2.80;;;26.00;87.60;;;;;;11895446;28;20099;-67
2021/09/18 14:37:25;;;;;;;3.00;2.70;;;25.70;89.80;;;;;;12005177;28;20055;-67
2021/09/18 14:43:12;;;;;;;2.55;2.35;;;25.50;90.30;;;;;;11961363;28;20090;-68
2021/09/18 14:49:02;;;;;;;4.65;3.17;;;25.40;90.50;;;;;;11946447;28;20125;-66
2021/09/18 14:54:50;;;;;;;4.55;3.30;;;25.20;90.70;;;;;;12036616;28;20129;-67
2021/09/18 15:00:39;;;;;;;3.97;2.70;;;25.00;91.50;;;;;;12024253;28;20060;-67
2021/09/18 15:06:35;;;;;;;4.30;2.90;;;24.90;91.90;;;;;;11973337;28;20136;-67
2021/09/18 15:12:23;;;;;;;3.55;3.13;;;24.80;92.00;;;;;;12015016;28;20053;-67
2021/09/18 15:18:13;;;;;;;3.67;2.78;;;24.70;93.20;;;;;;11943570;28;20061;-67
2021/09/18 15:24:02;;;;;;;4.28;2.92;;;24.60;94.30;;;;;;11985728;28;20061;-67
2021/09/18 15:29:52;;;;;;;5.15;3.30;;;24.50;93.70;;;;;;12012570;28;20045;-67
2021/09/18 15:35:42;;;;;;;3.05;2.78;;;24.40;94.20;;;;;;11978193;27;20055;-67
2021/09/18 15:41:31;;;;;;;5.05;3.35;;;24.30;94.40;;;;;;11983409;28;20181;-66
2021/09/18 15:47:25;;;;;;;8.27;3.65;;;24.20;94.70;;;;;;11942157;28;20110;-68
2021/09/18 15:53:13;;;;;;;6.60;3.20;;;24.00;95.10;;;;;;11978048;28;20052;-67
2021/09/18 15:59:10;;;;;;;5.63;2.92;;;23.90;95.60;;;;;;12037907;28;20121;-68
2021/09/18 16:11:01;;;;;;;6.43;3.33;;;23.70;98.90;;;;;;12006726;28;20163;-66
2021/09/18 16:16:57;;;;;;;5.18;3.78;;;23.50;99.70;;;;;;12010846;28;20056;-67
2021/09/18 16:22:45;;;;;;;3.97;3.45;;;23.40;99.90;;;;;;12009896;28;20059;-67
2021/09/18 16:28:34;;;;;;;6.03;3.33;;;23.30;99.90;;;;;;11991367;28;20082;-70
2021/09/18 16:34:45;;;;;;;3.95;3.33;;;23.10;99.90;;;;;;12021174;28;20052;-66
2021/09/18 16:40:33;;;;;;;7.50;3.92;;;23.10;99.90;;;;;;11940447;28;20341;-66
2021/09/18 16:46:22;;;;;;;4.80;3.67;;;23.00;99.90;;;;;;11971137;28;20409;-66
2021/09/18 16:52:38;;;;;;;3.55;3.25;;;23.00;99.90;;;;;;11898851;28;20138;-66
2021/09/18 16:58:45;;;;;;;4.65;3.80;;;23.00;99.90;;;;;;11914185;28;20663;-66
2021/09/18 17:04:32;;;;;;;7.47;3.13;;;22.90;99.90;;;;;;11919499;28;20048;-67
2021/09/18 17:16:31;;;;;;;3.67;3.13;;;22.60;99.90;;;;;;11974957;28;20102;-69
2021/09/18 17:22:19;;;;;;;4.18;2.95;;;22.50;99.90;;;;;;12010420;28;20181;-65
2021/09/18 17:28:09;;;;;;;3.97;3.55;;;22.60;99.90;;;;;;11982442;28;20053;-68
2021/09/18 17:34:01;;;;;;;3.78;3.17;;;22.50;99.90;;;;;;11943173;28;20426;-66
2021/09/18 17:45:51;;;;;;;7.25;4.20;;;22.40;99.90;;;;;;11893180;28;20052;-66
2021/09/18 17:52:02;;;;;;;5.32;4.15;;;22.00;99.90;;;;;;11992663;28;20048;-67
2021/09/18 17:57:49;;;;;;;6.97;4.65;;;21.90;99.90;;;;;;12021706;28;20098;-67
2021/09/18 18:03:46;;;;;;;10.05;5.45;;;21.80;99.90;;;;;;11982692;28;20055;-66
2021/09/18 18:10:02;;;;;;;8.48;5.43;;;21.90;99.90;;;;;;12004886;28;20049;-67
2021/09/18 18:16:01;;;;;;;5.65;5.03;;;21.90;99.90;;;;;;12027933;28;20727;-68
